Time;durP1;ratioP1;P1;durP2;ratioP2;P2;SDS_P1;SDS_P2;PMS_P1;PMS_P2;Temp;Humidity;BMP_temperature;BMP_pressure;BME280_temperature;BME280_humidity;BME280_pressure;Samples;Min_cycle;Max_cycle;Signal;HPM_P1;HPM_P2
2024/02/16 00:00:53;;;;;;;;;;;;;;;10.42;62.79;101384.31;4899601;29;19919;-79
2024/02/16 00:03:45;;;;;;;;;;;;;;;10.29;63.12;101385.88;4905436;29;20394;-79
2024/02/16 00:06:37;;;;;;;;;;;;;;;10.43;62.82;101375.84;4901324;29;20294;-79
2024/02/16 00:09:27;;;;;;;;;;;;;;;10.55;62.82;101372.69;4903010;29;19919;-79
2024/02/16 00:12:22;;;;;;;;;;;;;;;10.65;61.67;101367.06;4910293;29;20388;-80
2024/02/16 00:15:14;;;;;;;;;;;;;;;10.73;61.84;101369.06;4920937;29;19919;-79
2024/02/16 00:18:09;;;;;;;;;;;;;;;10.64;61.51;101371.69;4922770;29;19923;-80
2024/02/16 00:21:01;;;;;;;;;;;;;;;10.37;62.08;101368.06;4917259;29;20444;-80
2024/02/16 00:23:53;;;;;;;;;;;;;;;10.29;62.45;101362.22;4917932;29;20301;-79
2024/02/16 00:26:45;;;;;;;;;;;;;;;10.32;62.60;101363.53;4923855;29;20288;-79
2024/02/16 00:29:34;;;;;;;;;;;;;;;10.28;62.46;101351.66;4912349;29;19923;-80
2024/02/16 00:32:29;;;;;;;;;;;;;;;10.39;62.88;101344.13;4903840;29;19923;-79
2024/02/16 00:35:21;;;;;;;;;;;;;;;10.37;62.53;101349.03;4909621;29;19919;-80
2024/02/16 00:38:13;;;;;;;;;;;;;;;10.48;62.62;101350.50;4918463;29;19919;-78
2024/02/16 00:41:10;;;;;;;;;;;;;;;10.48;61.73;101351.31;4917040;29;20449;-80
2024/02/16 00:44:03;;;;;;;;;;;;;;;10.65;61.83;101356.97;4923462;29;20297;-79
2024/02/16 00:46:55;;;;;;;;;;;;;;;10.57;61.78;101348.69;4917850;29;19919;-79
2024/02/16 00:49:47;;;;;;;;;;;;;;;10.64;61.97;101354.56;4920522;29;19931;-80
2024/02/16 00:52:39;;;;;;;;;;;;;;;10.60;61.36;101348.91;4923293;29;20293;-79
2024/02/16 00:55:31;;;;;;;;;;;;;;;10.41;62.05;101344.66;4923267;29;19923;-80
2024/02/16 00:58:21;;;;;;;;;;;;;;;10.36;62.00;101342.81;4923228;29;19919;-79
2024/02/16 01:01:12;;;;;;;;;;;;;;;10.37;61.60;101338.16;4898108;29;19919;-79
2024/02/16 01:04:04;;;;;;;;;;;;;;;10.36;61.64;101344.75;4903670;29;19923;-79
2024/02/16 01:06:56;;;;;;;;;;;;;;;10.29;61.85;101345.91;4904019;29;19919;-79
2024/02/16 01:09:48;;;;;;;;;;;;;;;10.24;61.96;101346.00;4900725;29;20406;-79
2024/02/16 01:12:40;;;;;;;;;;;;;;;10.26;61.91;101341.06;4903921;29;19919;-79
2024/02/16 01:15:32;;;;;;;;;;;;;;;10.38;61.68;101342.50;4903760;29;19919;-80
2024/02/16 01:18:23;;;;;;;;;;;;;;;10.29;62.48;101340.50;4902378;29;19920;-79
2024/02/16 01:27:00;;;;;;;;;;;;;;;10.50;62.30;101346.38;4953144;29;20277;-80
2024/02/16 01:33:08;;;;;;;;;;;;;;;10.44;61.62;101338.59;4915508;29;19927;-79
2024/02/16 01:36:00;;;;;;;;;;;;;;;10.32;62.75;101340.97;4923297;29;19924;-79
2024/02/16 01:38:52;;;;;;;;;;;;;;;10.28;62.78;101335.34;4924413;29;19919;-80
2024/02/16 01:41:44;;;;;;;;;;;;;;;10.19;62.42;101346.09;4942412;29;20301;-79
2024/02/16 01:44:36;;;;;;;;;;;;;;;10.07;62.50;101340.28;4942668;29;19923;-80
2024/02/16 01:47:28;;;;;;;;;;;;;;;10.13;62.51;101341.81;4941943;29;19919;-80
2024/02/16 01:53:11;;;;;;;;;;;;;;;10.19;63.61;101343.38;4934466;29;20518;-80
2024/02/16 01:56:04;;;;;;;;;;;;;;;10.14;64.07;101340.72;4940614;29;20296;-80
2024/02/16 01:58:57;;;;;;;;;;;;;;;10.04;64.13;101343.59;4943851;29;19923;-80
2024/02/16 02:01:49;;;;;;;;;;;;;;;9.97;64.78;101334.19;4955612;29;20336;-80
2024/02/16 02:04:41;;;;;;;;;;;;;;;10.02;64.46;101332.19;4958708;28;19922;-80
2024/02/16 02:07:36;;;;;;;;;;;;;;;9.94;63.11;101323.91;4961034;29;19918;-80
2024/02/16 02:10:29;;;;;;;;;;;;;;;9.94;63.64;101326.63;4961116;28;19919;-80
2024/02/16 02:13:21;;;;;;;;;;;;;;;9.88;63.85;101323.19;4915322;29;20401;-80
2024/02/16 02:16:13;;;;;;;;;;;;;;;9.79;63.87;101322.25;4917772;29;19920;-80
2024/02/16 02:19:05;;;;;;;;;;;;;;;9.71;63.87;101321.00;4921942;29;19919;-80
2024/02/16 02:21:57;;;;;;;;;;;;;;;9.68;63.80;101323.50;4923465;29;19919;-80
2024/02/16 02:24:49;;;;;;;;;;;;;;;9.66;65.10;101323.78;4923404;29;19923;-80
2024/02/16 02:27:40;;;;;;;;;;;;;;;9.89;64.29;101319.38;4920558;29;19919;-81
2024/02/16 02:30:55;;;;;;;;;;;;;;;9.94;64.80;101305.72;4923210;29;19923;-80
2024/02/16 02:33:47;;;;;;;;;;;;;;;9.88;65.02;101298.75;4933967;29;19927;-80
2024/02/16 02:36:39;;;;;;;;;;;;;;;9.86;64.33;101296.31;4936942;29;19919;-80
2024/02/16 02:39:31;;;;;;;;;;;;;;;9.96;64.51;101299.97;4939566;29;19919;-80
2024/02/16 02:42:23;;;;;;;;;;;;;;;9.92;64.57;101294.31;4941721;29;19918;-80
2024/02/16 02:45:15;;;;;;;;;;;;;;;9.79;64.17;101287.75;4941953;29;19923;-80
2024/02/16 02:48:07;;;;;;;;;;;;;;;9.68;64.73;101290.91;4942107;29;19919;-80
2024/02/16 02:50:59;;;;;;;;;;;;;;;9.61;64.10;101279.59;4936033;29;19919;-79
2024/02/16 02:53:51;;;;;;;;;;;;;;;9.70;63.32;101273.22;4941785;29;19919;-80
2024/02/16 02:56:43;;;;;;;;;;;;;;;9.68;62.86;101272.72;4942545;29;19919;-80
2024/02/16 02:59:35;;;;;;;;;;;;;;;9.60;63.33;101269.88;4942431;29;19923;-79
2024/02/16 03:02:27;;;;;;;;;;;;;;;9.60;63.34;101269.88;4945284;29;19919;-80
2024/02/16 03:05:19;;;;;;;;;;;;;;;9.58;63.31;101270.16;4945248;29;20292;-80
2024/02/16 03:08:11;;;;;;;;;;;;;;;9.44;63.62;101270.09;4945424;29;19919;-80
2024/02/16 03:11:04;;;;;;;;;;;;;;;9.64;63.60;101265.47;4945320;29;19918;-80
2024/02/16 03:13:56;;;;;;;;;;;;;;;9.69;63.40;101263.47;4941755;29;19926;-80
2024/02/16 03:16:48;;;;;;;;;;;;;;;9.76;62.66;101268.50;4940136;29;20388;-81
2024/02/16 03:19:40;;;;;;;;;;;;;;;9.78;63.12;101266.31;5244074;23;19929;-80
2024/02/16 03:22:32;;;;;;;;;;;;;;;9.66;63.13;101260.53;4983110;28;19922;-80
2024/02/16 03:25:24;;;;;;;;;;;;;;;9.56;63.32;101257.97;4983596;28;19926;-80
2024/02/16 03:28:16;;;;;;;;;;;;;;;9.54;63.57;101257.47;4980252;28;19918;-80
2024/02/16 03:31:08;;;;;;;;;;;;;;;9.50;63.57;101253.72;4958313;28;19918;-80
2024/02/16 03:34:00;;;;;;;;;;;;;;;9.59;62.96;101260.09;4961993;28;19919;-80
2024/02/16 03:36:52;;;;;;;;;;;;;;;9.43;63.13;101263.06;4964270;28;19918;-80
2024/02/16 03:39:44;;;;;;;;;;;;;;;9.55;63.20;101257.16;4961026;28;19919;-79
2024/02/16 03:42:36;;;;;;;;;;;;;;;9.52;64.11;101263.19;4963965;28;19919;-80
2024/02/16 03:45:28;;;;;;;;;;;;;;;9.44;63.99;101263.84;4964010;28;19922;-80
2024/02/16 03:48:20;;;;;;;;;;;;;;;9.57;64.04;101259.56;4963433;28;19919;-80
2024/02/16 03:51:12;;;;;;;;;;;;;;;9.48;62.87;101259.44;4958249;28;19922;-79
2024/02/16 03:54:03;;;;;;;;;;;;;;;9.42;63.70;101258.72;4963359;28;20299;-80
2024/02/16 03:56:58;;;;;;;;;;;;;;;9.52;63.23;101254.22;4963615;28;19918;-80
2024/02/16 03:59:50;;;;;;;;;;;;;;;9.42;64.17;101252.47;4959751;28;19918;-80
2024/02/16 04:02:40;;;;;;;;;;;;;;;9.52;63.55;101259.66;4962376;28;19952;-79
2024/02/16 04:05:31;;;;;;;;;;;;;;;9.43;63.05;101251.38;4963389;28;19919;-80
2024/02/16 04:08:22;;;;;;;;;;;;;;;9.41;63.45;101253.56;4962757;28;19919;-80
2024/02/16 04:11:14;;;;;;;;;;;;;;;9.47;63.88;101260.53;4957168;28;19927;-80
2024/02/16 04:14:06;;;;;;;;;;;;;;;9.33;64.50;101254.25;4940999;29;20388;-80
2024/02/16 04:17:01;;;;;;;;;;;;;;;9.21;64.88;101262.81;4944052;29;19919;-79
2024/02/16 04:19:53;;;;;;;;;;;;;;;9.35;65.15;101254.75;4933236;29;19919;-80
2024/02/16 04:22:45;;;;;;;;;;;;;;;9.41;65.13;101257.09;4943996;29;19923;-80
2024/02/16 04:25:37;;;;;;;;;;;;;;;9.54;64.19;101266.41;4943527;29;19922;-81
2024/02/16 04:28:29;;;;;;;;;;;;;;;9.56;64.12;101256.06;4949427;28;19918;-80
2024/02/16 04:31:21;;;;;;;;;;;;;;;9.60;63.28;101259.00;4958170;28;19919;-80
2024/02/16 04:34:13;;;;;;;;;;;;;;;9.52;64.07;101259.66;4962607;28;19918;-78
2024/02/16 04:37:05;;;;;;;;;;;;;;;9.42;63.55;101261.44;4962396;28;19918;-80
2024/02/16 04:39:57;;;;;;;;;;;;;;;9.44;64.42;101259.25;4959515;28;19918;-80
2024/02/16 04:42:49;;;;;;;;;;;;;;;9.37;63.86;101261.50;4962469;28;19918;-79
2024/02/16 04:45:41;;;;;;;;;;;;;;;9.25;64.79;101258.41;4962664;28;19922;-80
2024/02/16 04:48:32;;;;;;;;;;;;;;;9.24;64.25;101250.59;4956619;28;19918;-81
2024/02/16 04:51:25;;;;;;;;;;;;;;;9.34;64.43;101264.81;4959765;28;19919;-80
2024/02/16 04:54:17;;;;;;;;;;;;;;;9.32;64.11;101269.72;4962459;28;20404;-80
2024/02/16 04:57:07;;;;;;;;;;;;;;;9.33;63.90;101273.25;4962562;28;19918;-80
2024/02/16 04:59:59;;;;;;;;;;;;;;;9.22;63.78;101269.06;4958995;28;19919;-79
2024/02/16 05:02:48;;;;;;;;;;;;;;;9.25;64.06;101271.97;4962044;28;19918;-80
2024/02/16 05:05:40;;;;;;;;;;;;;;;9.14;64.20;101272.44;4961085;28;20312;-79
2024/02/16 05:08:32;;;;;;;;;;;;;;;9.10;64.16;101277.59;4958322;28;20292;-80
2024/02/16 05:11:24;;;;;;;;;;;;;;;9.08;65.26;101277.09;4962408;28;19919;-79
2024/02/16 05:14:16;;;;;;;;;;;;;;;9.16;64.55;101271.03;4962451;28;19918;-79
2024/02/16 05:17:08;;;;;;;;;;;;;;;9.20;64.44;101273.94;4962204;28;19918;-79
2024/02/16 05:20:00;;;;;;;;;;;;;;;9.10;63.63;101263.22;4957856;28;20340;-80
2024/02/16 05:22:49;;;;;;;;;;;;;;;9.05;64.22;101264.09;4962067;28;19922;-79
2024/02/16 05:25:41;;;;;;;;;;;;;;;9.07;64.38;101261.94;4962378;28;19989;-79
2024/02/16 05:28:33;;;;;;;;;;;;;;;9.04;64.35;101259.78;4962038;28;19918;-79
2024/02/16 05:31:25;;;;;;;;;;;;;;;9.07;64.55;101264.63;4962375;28;19934;-80
2024/02/16 05:34:17;;;;;;;;;;;;;;;9.05;65.01;101269.53;4956010;28;20396;-79
2024/02/16 05:37:09;;;;;;;;;;;;;;;8.92;64.90;101270.25;4961721;28;19918;-80
2024/02/16 05:40:08;;;;;;;;;;;;;;;8.90;65.02;101261.59;4948795;28;19923;-80
2024/02/16 05:43:00;;;;;;;;;;;;;;;8.87;65.15;101273.84;4961414;28;19918;-80
2024/02/16 05:45:49;;;;;;;;;;;;;;;8.89;65.61;101271.63;4962188;28;19926;-78
2024/02/16 05:48:41;;;;;;;;;;;;;;;8.96;65.58;101276.72;4936336;29;20332;-79
2024/02/16 05:51:36;;;;;;;;;;;;;;;8.88;65.34;101275.47;4958861;28;19918;-79
2024/02/16 05:54:28;;;;;;;;;;;;;;;8.82;65.97;101279.31;4960492;28;19944;-80
2024/02/16 05:57:18;;;;;;;;;;;;;;;8.74;66.02;101273.72;4953971;28;19922;-79
2024/02/16 06:00:09;;;;;;;;;;;;;;;8.63;66.34;101275.75;4957049;28;20284;-79
2024/02/16 06:03:00;;;;;;;;;;;;;;;8.59;66.20;101278.22;4955692;29;19918;-79
2024/02/16 06:05:52;;;;;;;;;;;;;;;8.68;66.23;101280.31;4960518;28;19922;-79
2024/02/16 06:08:45;;;;;;;;;;;;;;;8.94;68.45;101290.56;4960179;29;19922;-80
2024/02/16 06:11:38;;;;;;;;;;;;;;;8.73;66.27;101282.97;4954777;28;19919;-79
2024/02/16 06:14:30;;;;;;;;;;;;;;;8.80;65.58;101291.53;4958159;29;19918;-79
2024/02/16 06:17:19;;;;;;;;;;;;;;;8.86;67.52;101293.91;4955924;29;19918;-77
2024/02/16 06:20:14;;;;;;;;;;;;;;;9.10;67.29;101296.59;4937556;29;20142;-77
2024/02/16 06:23:06;;;;;;;;;;;;;;;9.08;66.82;101296.09;4937561;29;19923;-77
2024/02/16 06:25:58;;;;;;;;;;;;;;;8.99;66.17;101295.09;4935665;29;19922;-76
2024/02/16 06:28:50;;;;;;;;;;;;;;;8.74;66.56;101292.69;4939318;29;19919;-77
2024/02/16 06:31:41;;;;;;;;;;;;;;;8.60;67.33;101295.28;4942111;28;19919;-76
2024/02/16 06:34:33;;;;;;;;;;;;;;;8.59;67.90;101305.31;4957606;28;20380;-77
2024/02/16 06:37:25;;;;;;;;;;;;;;;8.54;68.23;101302.66;4962883;28;20288;-77
2024/02/16 06:40:12;;;;;;;;;;;;;;;8.58;67.44;101303.69;4959362;28;19919;-79
2024/02/16 06:43:04;;;;;;;;;;;;;;;8.36;68.64;101322.38;4957982;28;19918;-80
2024/02/16 06:45:56;;;;;;;;;;;;;;;8.18;69.09;101320.31;4963947;28;19923;-79
2024/02/16 06:48:48;;;;;;;;;;;;;;;8.12;69.89;101318.78;4958649;28;20561;-80
2024/02/16 06:51:40;;;;;;;;;;;;;;;8.15;69.16;101320.91;4955472;28;20320;-79
2024/02/16 06:54:32;;;;;;;;;;;;;;;8.04;69.30;101330.19;4953972;28;19923;-79
2024/02/16 06:57:25;;;;;;;;;;;;;;;7.99;69.43;101327.53;4963639;28;19926;-80
2024/02/16 07:00:16;;;;;;;;;;;;;;;8.00;70.97;101329.97;4946874;28;20401;-78
2024/02/16 07:03:08;;;;;;;;;;;;;;;7.96;71.37;101336.22;4941930;29;19919;-79
2024/02/16 07:06:00;;;;;;;;;;;;;;;8.09;71.57;101338.28;4948764;28;19927;-79
2024/02/16 07:08:57;;;;;;;;;;;;;;;8.15;72.02;101332.56;4960090;28;20400;-78
2024/02/16 07:11:52;;;;;;;;;;;;;;;8.36;71.00;101344.06;4962941;28;20280;-80
2024/02/16 07:14:44;;;;;;;;;;;;;;;8.31;71.19;101341.38;4962729;28;19918;-79
2024/02/16 07:17:37;;;;;;;;;;;;;;;8.32;71.19;101336.78;4946480;29;19918;-79
2024/02/16 07:20:29;;;;;;;;;;;;;;;8.18;71.86;101339.28;4945595;29;19918;-79
2024/02/16 07:23:21;;;;;;;;;;;;;;;8.30;71.40;101342.47;4957833;28;19948;-79
2024/02/16 07:26:13;;;;;;;;;;;;;;;8.51;71.07;101346.63;4939811;29;19926;-79
2024/02/16 07:29:05;;;;;;;;;;;;;;;8.70;71.16;101337.75;4958392;28;19918;-79
2024/02/16 07:31:57;;;;;;;;;;;;;;;8.75;70.58;101345.84;4960385;28;19918;-79
2024/02/16 07:34:52;;;;;;;;;;;;;;;8.94;70.71;101341.28;4963156;28;20314;-79
2024/02/16 07:37:42;;;;;;;;;;;;;;;8.69;71.11;101346.97;4962739;28;19918;-79
2024/02/16 07:40:34;;;;;;;;;;;;;;;8.76;71.36;101347.44;4957820;28;19918;-79
2024/02/16 07:43:26;;;;;;;;;;;;;;;8.88;71.38;101356.00;4951323;28;19918;-79
2024/02/16 07:46:18;;;;;;;;;;;;;;;8.76;71.68;101358.31;4947438;28;19926;-81
2024/02/16 07:49:10;;;;;;;;;;;;;;;8.59;73.62;101367.69;4958503;28;19927;-79
2024/02/16 07:52:03;;;;;;;;;;;;;;;8.15;75.63;101356.94;4950697;28;19918;-79
2024/02/16 07:54:55;;;;;;;;;;;;;;;8.08;76.50;101363.75;4962504;28;20395;-79
2024/02/16 07:57:47;;;;;;;;;;;;;;;7.64;79.66;101367.28;4962399;28;20293;-77
2024/02/16 08:00:39;;;;;;;;;;;;;;;7.90;81.25;101367.13;4956709;28;19918;-78
2024/02/16 08:03:28;;;;;;;;;;;;;;;8.03;80.84;101370.00;4956919;28;19918;-78
2024/02/16 08:06:20;;;;;;;;;;;;;;;8.05;79.20;101367.03;4962402;28;19922;-78
2024/02/16 08:09:13;;;;;;;;;;;;;;;7.96;79.26;101372.25;4960786;28;19918;-78
2024/02/16 08:12:06;;;;;;;;;;;;;;;7.85;80.33;101370.69;4958036;28;20303;-78
2024/02/16 08:14:58;;;;;;;;;;;;;;;8.04;80.68;101362.69;4961029;28;19918;-78
2024/02/16 08:17:50;;;;;;;;;;;;;;;8.56;80.28;101373.69;4958222;28;20408;-78
2024/02/16 08:20:40;;;;;;;;;;;;;;;8.38;79.58;101371.66;4951707;29;19922;-79
2024/02/16 08:23:32;;;;;;;;;;;;;;;8.56;78.17;101375.56;4961905;28;19922;-78
2024/02/16 08:26:24;;;;;;;;;;;;;;;7.93;80.90;101383.63;4954746;28;19926;-78
2024/02/16 08:29:14;;;;;;;;;;;;;;;8.47;78.76;101380.81;4944074;28;19919;-78
2024/02/16 08:32:03;;;;;;;;;;;;;;;8.55;79.83;101380.19;4957111;28;20300;-78
2024/02/16 08:34:55;;;;;;;;;;;;;;;8.40;79.83;101385.75;4954987;28;19927;-78
2024/02/16 08:37:47;;;;;;;;;;;;;;;8.49;80.73;101386.75;4955182;28;19919;-78
2024/02/16 08:40:39;;;;;;;;;;;;;;;8.64;80.82;101376.84;4951743;28;19922;-78
2024/02/16 08:43:31;;;;;;;;;;;;;;;8.99;79.67;101387.31;4953462;28;20396;-78
2024/02/16 08:46:23;;;;;;;;;;;;;;;9.52;76.00;101381.81;4940800;29;20300;-78
2024/02/16 08:49:15;;;;;;;;;;;;;;;8.84;78.08;101382.88;4948655;28;20312;-77
2024/02/16 08:52:07;;;;;;;;;;;;;;;9.28;77.79;101390.81;4959893;28;19918;-78
2024/02/16 08:54:57;;;;;;;;;;;;;;;10.24;73.32;101397.66;4958284;28;19922;-79
2024/02/16 08:57:47;;;;;;;;;;;;;;;10.80;71.38;101391.25;4960546;28;19918;-79
2024/02/16 09:00:39;;;;;;;;;;;;;;;10.37;70.49;101398.78;4953104;28;19919;-79
2024/02/16 09:03:36;;;;;;;;;;;;;;;11.59;66.80;101389.94;4944946;28;20135;-81
2024/02/16 09:06:23;;;;;;;;;;;;;;;11.12;67.36;101393.91;4946984;28;19926;-78
2024/02/16 09:09:15;;;;;;;;;;;;;;;10.32;70.97;101398.88;4948511;28;19919;-78
2024/02/16 09:12:07;;;;;;;;;;;;;;;10.32;71.75;101398.06;4942184;29;19919;-79
2024/02/16 09:14:58;;;;;;;;;;;;;;;10.34;71.44;101404.03;4945769;29;20396;-79
2024/02/16 09:17:50;;;;;;;;;;;;;;;10.27;71.21;101405.19;4964563;28;19923;-79
2024/02/16 09:20:42;;;;;;;;;;;;;;;10.32;72.29;101415.19;4955942;28;19918;-79
2024/02/16 09:23:34;;;;;;;;;;;;;;;10.04;72.98;101406.09;4961381;28;20408;-79
2024/02/16 09:26:26;;;;;;;;;;;;;;;10.19;73.13;101407.78;4958256;28;19934;-79
2024/02/16 09:29:18;;;;;;;;;;;;;;;10.35;73.86;101401.00;4943521;29;19918;-77
2024/02/16 09:32:13;;;;;;;;;;;;;;;10.47;74.29;101405.97;4956390;28;19919;-78
2024/02/16 09:35:05;;;;;;;;;;;;;;;10.31;74.18;101410.06;4958948;28;19942;-77
2024/02/16 09:37:58;;;;;;;;;;;;;;;10.17;74.40;101397.22;4939793;29;19918;-77
2024/02/16 09:40:50;;;;;;;;;;;;;;;10.05;74.69;101405.00;4951712;29;20316;-79
2024/02/16 09:43:42;;;;;;;;;;;;;;;10.17;74.74;101404.53;4952951;28;19923;-78
2024/02/16 09:46:35;;;;;;;;;;;;;;;10.36;73.75;101410.78;4946506;29;19923;-79
2024/02/16 09:49:27;;;;;;;;;;;;;;;10.06;75.31;101403.88;4958292;28;19923;-79
2024/02/16 09:52:19;;;;;;;;;;;;;;;10.13;74.97;101400.78;4956337;28;19918;-79
2024/02/16 09:55:09;;;;;;;;;;;;;;;10.27;74.79;101404.38;4960998;28;19919;-79
2024/02/16 09:58:04;;;;;;;;;;;;;;;10.41;74.23;101399.84;4957542;28;19926;-79
2024/02/16 10:00:57;;;;;;;;;;;;;;;10.56;74.01;101412.38;4954842;28;19918;-79
2024/02/16 10:03:49;;;;;;;;;;;;;;;10.65;73.77;101405.13;4961506;29;19918;-78
2024/02/16 10:06:48;;;;;;;;;;;;;;;10.79;73.04;101414.13;4961173;28;19923;-79
2024/02/16 10:09:40;;;;;;;;;;;;;;;10.94;72.82;101418.47;4962169;28;19919;-79
2024/02/16 10:12:29;;;;;;;;;;;;;;;10.95;72.15;101409.22;4964941;28;19923;-79
2024/02/16 10:15:25;;;;;;;;;;;;;;;11.15;71.56;101415.09;4964506;28;19923;-79
2024/02/16 10:18:14;;;;;;;;;;;;;;;11.12;71.80;101412.94;4962143;28;19919;-79
2024/02/16 10:21:06;;;;;;;;;;;;;;;11.15;71.68;101408.81;4960174;28;19918;-79
2024/02/16 10:24:02;;;;;;;;;;;;;;;11.27;71.05;101417.31;4964054;28;19918;-79
2024/02/16 10:26:57;;;;;;;;;;;;;;;11.30;70.19;101416.69;4964538;28;19922;-79
2024/02/16 10:29:49;;;;;;;;;;;;;;;11.46;69.77;101411.75;4961780;28;19922;-79
2024/02/16 10:32:41;;;;;;;;;;;;;;;11.48;68.52;101413.03;4962886;28;19918;-79
2024/02/16 10:35:33;;;;;;;;;;;;;;;11.79;67.78;101410.50;4960534;28;20384;-79
2024/02/16 10:38:30;;;;;;;;;;;;;;;11.86;67.29;101407.38;4962684;28;19919;-79
2024/02/16 10:41:22;;;;;;;;;;;;;;;11.91;65.72;101399.09;4954734;28;19922;-78
2024/02/16 10:44:14;;;;;;;;;;;;;;;11.93;65.74;101405.84;4959281;28;19918;-78
2024/02/16 10:47:06;;;;;;;;;;;;;;;12.02;64.98;101394.22;4964372;28;19923;-79
2024/02/16 10:49:55;;;;;;;;;;;;;;;12.07;64.76;101397.63;4960724;28;19919;-79
2024/02/16 10:52:48;;;;;;;;;;;;;;;12.28;65.71;101397.94;4956353;28;19919;-78
2024/02/16 10:55:41;;;;;;;;;;;;;;;12.31;65.42;101394.59;4944835;29;19918;-78
2024/02/16 10:58:34;;;;;;;;;;;;;;;12.49;65.08;101399.06;4950220;28;19918;-79
2024/02/16 11:01:26;;;;;;;;;;;;;;;12.57;65.37;101390.13;4964016;28;19918;-79
2024/02/16 11:04:21;;;;;;;;;;;;;;;12.75;64.69;101402.72;4964113;28;19922;-79
2024/02/16 11:07:17;;;;;;;;;;;;;;;12.85;62.67;101397.00;4963703;28;19923;-79
2024/02/16 11:10:13;;;;;;;;;;;;;;;12.84;63.77;101395.41;4951662;28;19926;-79
2024/02/16 11:13:08;;;;;;;;;;;;;;;12.91;64.24;101381.31;4963530;28;20301;-79
2024/02/16 11:16:12;;;;;;;;;;;;;;;13.18;62.84;101386.59;4954657;28;19919;-79
2024/02/16 11:19:04;;;;;;;;;;;;;;;13.39;62.84;101384.09;4960188;28;19918;-79
2024/02/16 11:22:00;;;;;;;;;;;;;;;13.20;61.84;101386.28;4952085;28;19934;-79
2024/02/16 11:24:54;;;;;;;;;;;;;;;13.44;60.88;101377.66;4963153;28;19922;-80
2024/02/16 11:27:50;;;;;;;;;;;;;;;13.36;60.57;101373.78;4950633;28;19922;-79
2024/02/16 11:30:42;;;;;;;;;;;;;;;13.53;60.83;101373.03;4944505;29;19926;-79
2024/02/16 11:33:39;;;;;;;;;;;;;;;13.49;60.19;101350.19;4956799;28;20303;-79
2024/02/16 11:36:29;;;;;;;;;;;;;;;13.48;60.61;101359.50;4960052;28;20324;-79
2024/02/16 11:39:18;;;;;;;;;;;;;;;13.85;60.27;101360.84;4952077;28;20384;-80
2024/02/16 11:42:11;;;;;;;;;;;;;;;13.89;59.74;101359.06;4953506;28;19922;-79
2024/02/16 11:45:03;;;;;;;;;;;;;;;14.04;58.62;101351.19;4960561;28;19918;-80
2024/02/16 11:48:05;;;;;;;;;;;;;;;13.95;59.17;101346.84;4957721;28;19935;-81
2024/02/16 11:51:06;;;;;;;;;;;;;;;14.27;58.36;101351.03;4944821;29;20304;-79
2024/02/16 11:54:01;;;;;;;;;;;;;;;14.33;57.79;101342.28;4957592;28;19918;-79
2024/02/16 11:56:55;;;;;;;;;;;;;;;14.30;58.23;101336.69;4942916;28;19922;-79
2024/02/16 11:59:47;;;;;;;;;;;;;;;14.47;57.17;101337.50;4956094;28;19919;-80
2024/02/16 12:02:37;;;;;;;;;;;;;;;14.54;57.68;101331.50;4962012;28;20572;-80
2024/02/16 12:05:29;;;;;;;;;;;;;;;14.45;57.42;101333.47;4951480;29;19918;-79
2024/02/16 12:08:21;;;;;;;;;;;;;;;14.57;56.76;101338.25;4955269;28;19926;-79
2024/02/16 12:11:13;;;;;;;;;;;;;;;14.66;56.85;101339.84;4962478;28;19922;-79
2024/02/16 12:14:05;;;;;;;;;;;;;;;14.90;56.62;101333.78;4956148;28;20307;-81
2024/02/16 12:16:57;;;;;;;;;;;;;;;14.97;55.98;101332.16;4960905;28;20368;-79
2024/02/16 12:19:49;;;;;;;;;;;;;;;14.66;56.78;101325.34;4947842;28;19918;-79
2024/02/16 12:22:38;;;;;;;;;;;;;;;14.68;55.57;101317.63;4956729;28;20380;-79
2024/02/16 12:25:30;;;;;;;;;;;;;;;14.79;55.32;101318.84;4960004;28;19934;-79
2024/02/16 12:28:22;;;;;;;;;;;;;;;14.87;55.29;101323.50;4950945;28;19923;-80
2024/02/16 12:31:22;;;;;;;;;;;;;;;14.83;54.94;101334.28;4960592;28;20300;-79
2024/02/16 12:34:14;;;;;;;;;;;;;;;14.75;54.96;101324.19;4962146;28;19918;-80
2024/02/16 12:37:04;;;;;;;;;;;;;;;14.47;56.92;101323.00;4944336;28;19931;-79
2024/02/16 12:39:55;;;;;;;;;;;;;;;14.53;56.84;101307.97;4951343;28;19923;-82
2024/02/16 12:42:47;;;;;;;;;;;;;;;14.60;57.17;101307.50;4948648;28;20384;-78
2024/02/16 12:45:39;;;;;;;;;;;;;;;14.91;56.54;101311.56;4948375;28;19918;-79
2024/02/16 12:48:31;;;;;;;;;;;;;;;14.80;56.64;101304.03;4944842;28;19923;-79
2024/02/16 12:51:23;;;;;;;;;;;;;;;15.01;55.67;101301.34;4951047;28;19923;-79
2024/02/16 12:54:13;;;;;;;;;;;;;;;15.01;55.68;101295.88;4956081;28;19918;-80
2024/02/16 12:57:06;;;;;;;;;;;;;;;15.18;55.98;101295.78;4956624;28;19931;-81
2024/02/16 12:59:58;;;;;;;;;;;;;;;15.48;54.90;101286.38;4950489;28;20312;-81
2024/02/16 13:02:50;;;;;;;;;;;;;;;15.49;54.20;101284.44;4961777;28;20312;-80
2024/02/16 13:05:42;;;;;;;;;;;;;;;15.47;54.04;101286.72;4938978;29;19923;-81
2024/02/16 13:08:34;;;;;;;;;;;;;;;15.49;55.06;101287.19;4949574;29;19922;-80
2024/02/16 13:11:24;;;;;;;;;;;;;;;15.52;55.07;101278.31;4943732;28;20395;-80
2024/02/16 13:14:15;;;;;;;;;;;;;;;15.66;54.20;101273.34;4952734;28;19919;-80
2024/02/16 13:17:07;;;;;;;;;;;;;;;15.44;55.21;101268.19;4949481;28;19922;-79
2024/02/16 13:20:06;;;;;;;;;;;;;;;15.66;54.17;101274.16;4937741;29;20411;-80
2024/02/16 13:22:58;;;;;;;;;;;;;;;15.76;54.12;101273.75;4935436;29;19922;-80
2024/02/16 13:25:50;;;;;;;;;;;;;;;16.05;53.20;101267.34;4938351;29;20296;-80
2024/02/16 13:28:42;;;;;;;;;;;;;;;15.86;53.46;101268.97;4936255;29;19927;-80
2024/02/16 13:31:34;;;;;;;;;;;;;;;15.88;53.86;101264.78;4934362;29;19919;-79
2024/02/16 13:34:26;;;;;;;;;;;;;;;16.15;53.27;101258.66;4938053;29;19919;-79
2024/02/16 13:37:18;;;;;;;;;;;;;;;16.30;53.35;101262.72;4935616;29;19919;-82
2024/02/16 13:40:11;;;;;;;;;;;;;;;16.36;53.07;101269.59;4936512;29;19919;-80
2024/02/16 13:43:03;;;;;;;;;;;;;;;16.33;53.04;101263.97;4936138;29;19926;-80
2024/02/16 13:45:56;;;;;;;;;;;;;;;16.36;52.63;101266.03;4935096;29;19919;-80
2024/02/16 13:48:45;;;;;;;;;;;;;;;16.35;52.14;101269.94;4938223;29;19927;-80
2024/02/16 13:51:37;;;;;;;;;;;;;;;16.50;51.34;101259.09;4936323;29;19918;-79
2024/02/16 13:54:29;;;;;;;;;;;;;;;16.45;50.83;101266.75;4934041;29;19919;-80
2024/02/16 13:57:21;;;;;;;;;;;;;;;16.49;50.42;101267.69;4937488;29;19919;-80
2024/02/16 14:00:18;;;;;;;;;;;;;;;16.69;49.61;101266.81;4935288;29;19923;-81
2024/02/16 14:03:13;;;;;;;;;;;;;;;16.79;50.11;101260.06;4939003;29;19919;-79
2024/02/16 14:06:06;;;;;;;;;;;;;;;16.75;50.39;101264.63;4936574;29;20296;-80
2024/02/16 14:08:55;;;;;;;;;;;;;;;16.72;50.28;101271.59;4934079;29;19926;-80
2024/02/16 14:11:47;;;;;;;;;;;;;;;16.74;49.47;101269.31;4940415;29;19918;-80
2024/02/16 14:14:38;;;;;;;;;;;;;;;16.78;50.51;101269.44;4936026;29;19919;-79
2024/02/16 14:17:29;;;;;;;;;;;;;;;16.79;51.07;101271.84;4947767;28;19923;-80
2024/02/16 14:20:21;;;;;;;;;;;;;;;16.87;51.00;101273.66;4948942;29;19938;-81
2024/02/16 14:23:13;;;;;;;;;;;;;;;16.75;50.09;101279.16;4953953;29;19922;-79
2024/02/16 14:26:05;;;;;;;;;;;;;;;16.90;48.11;101267.50;4955666;29;19919;-79
2024/02/16 14:28:57;;;;;;;;;;;;;;;16.83;48.43;101264.50;4951794;28;20380;-79
2024/02/16 14:31:49;;;;;;;;;;;;;;;16.99;49.30;101265.44;4949508;29;19922;-82
2024/02/16 14:34:40;;;;;;;;;;;;;;;17.13;48.95;101264.25;4956656;28;19918;-81
2024/02/16 14:37:32;;;;;;;;;;;;;;;17.08;48.37;101266.09;4954627;29;19918;-80
2024/02/16 14:40:24;;;;;;;;;;;;;;;17.14;48.48;101265.84;4946979;29;19922;-81
2024/02/16 14:43:16;;;;;;;;;;;;;;;17.25;48.53;101258.75;4954332;29;19918;-81
2024/02/16 14:46:08;;;;;;;;;;;;;;;17.10;47.92;101255.56;4951845;29;19918;-81
2024/02/16 14:49:00;;;;;;;;;;;;;;;17.07;47.92;101256.25;4957359;28;19926;-81
2024/02/16 14:51:52;;;;;;;;;;;;;;;17.10;47.26;101257.50;4955731;29;20388;-80
2024/02/16 14:54:49;;;;;;;;;;;;;;;17.16;47.39;101258.06;4956268;28;19923;-83
2024/02/16 14:57:41;;;;;;;;;;;;;;;17.23;47.36;101264.56;4960035;28;19919;-81
2024/02/16 15:00:33;;;;;;;;;;;;;;;17.26;47.87;101261.16;4957733;28;19922;-82